Time;durP1;ratioP1;P1;durP2;ratioP2;P2;SDS_P1;SDS_P2;PMS_P1;PMS_P2;Temp;Humidity;BMP_temperature;BMP_pressure;BME280_temperature;BME280_humidity;BME280_pressure;Samples;Min_cycle;Max_cycle;Signal;HPM_P1;HPM_P2
2022/05/29 00:00:54;;;;;;;12.82;2.63;;;11.30;99.90;;;;;;4956654;28;20094;-81
2022/05/29 00:03:20;;;;;;;15.63;3.03;;;11.30;99.90;;;;;;4974179;28;20047;-82
2022/05/29 00:05:47;;;;;;;14.25;2.92;;;11.20;99.90;;;;;;4957024;28;20058;-80
2022/05/29 00:08:28;;;;;;;16.23;2.75;;;11.30;99.90;;;;;;4944115;28;20054;-80
2022/05/29 00:10:56;;;;;;;20.02;3.40;;;11.30;99.90;;;;;;4994755;28;20505;-80
2022/05/29 00:13:22;;;;;;;15.90;3.50;;;11.30;99.90;;;;;;4994743;28;20101;-80
2022/05/29 00:15:48;;;;;;;11.52;2.95;;;11.30;99.90;;;;;;4995941;28;20050;-82
2022/05/29 00:18:14;;;;;;;16.05;3.53;;;11.30;99.90;;;;;;4975658;28;20478;-83
2022/05/29 00:20:40;;;;;;;16.45;3.65;;;11.30;99.90;;;;;;4992836;28;20072;-83
2022/05/29 00:23:06;;;;;;;10.60;2.58;;;11.30;99.90;;;;;;4993521;28;20081;-83
2022/05/29 00:25:33;;;;;;;13.82;2.78;;;11.40;99.90;;;;;;4993302;28;20414;-80
2022/05/29 00:27:59;;;;;;;14.73;3.38;;;11.30;99.90;;;;;;4997421;28;20429;-81
2022/05/29 00:30:28;;;;;;;15.93;2.85;;;11.40;99.90;;;;;;4975827;28;20129;-80
2022/05/29 00:32:54;;;;;;;10.35;2.17;;;11.40;99.90;;;;;;4975690;28;20058;-81
2022/05/29 00:35:20;;;;;;;16.05;3.22;;;11.40;99.90;;;;;;4992750;28;20410;-80
2022/05/29 00:37:47;;;;;;;9.23;2.63;;;11.40;99.90;;;;;;4976173;28;20109;-80
2022/05/29 00:40:28;;;;;;;19.05;2.80;;;11.40;99.90;;;;;;4999084;28;20061;-80
2022/05/29 00:42:54;;;;;;;14.40;3.75;;;11.40;99.90;;;;;;5003835;28;20105;-80
2022/05/29 00:45:22;;;;;;;14.52;3.40;;;11.40;99.90;;;;;;4996733;28;20051;-81
2022/05/29 00:47:48;;;;;;;23.67;3.92;;;11.40;99.90;;;;;;4994734;28;20108;-81
2022/05/29 00:50:21;;;;;;;20.63;3.42;;;11.40;99.90;;;;;;4992494;28;20493;-80
2022/05/29 00:52:48;;;;;;;16.23;3.25;;;11.40;99.90;;;;;;4992299;28;20058;-81
2022/05/29 00:55:23;;;;;;;13.90;3.40;;;11.40;99.90;;;;;;4991247;28;20387;-80
2022/05/29 00:57:58;;;;;;;14.55;3.38;;;11.40;99.90;;;;;;4975748;28;20581;-82
2022/05/29 01:00:28;;;;;;;14.10;3.50;;;11.40;99.90;;;;;;4978228;28;20049;-81
2022/05/29 01:02:56;;;;;;;19.23;3.40;;;11.30;99.90;;;;;;4975264;28;20093;-81
2022/05/29 01:05:24;;;;;;;16.17;3.38;;;11.30;99.90;;;;;;4993596;28;20451;-79
2022/05/29 01:08:04;;;;;;;10.57;2.35;;;11.30;99.90;;;;;;4998524;28;20077;-80
2022/05/29 01:10:53;;;;;;;11.57;2.22;;;11.30;99.90;;;;;;5002608;28;20089;-82
2022/05/29 01:13:33;;;;;;;8.80;2.00;;;11.30;99.90;;;;;;4993975;28;20104;-81
2022/05/29 01:16:04;;;;;;;14.77;2.38;;;11.30;99.90;;;;;;4992235;28;20056;-82
2022/05/29 01:18:35;;;;;;;8.90;2.10;;;11.40;99.90;;;;;;4992611;28;20486;-80
2022/05/29 01:21:21;;;;;;;13.60;3.30;;;11.40;99.90;;;;;;4974475;28;20073;-80
2022/05/29 01:24:05;;;;;;;12.85;2.65;;;11.40;99.90;;;;;;4974163;28;20479;-78
2022/05/29 01:27:04;;;;;;;19.80;3.47;;;11.40;99.90;;;;;;4992479;28;20054;-80
2022/05/29 01:29:52;;;;;;;8.30;2.30;;;11.50;99.90;;;;;;4991643;28;20490;-81
2022/05/29 01:32:43;;;;;;;12.40;2.30;;;11.40;99.90;;;;;;4993054;28;20490;-78
2022/05/29 01:35:37;;;;;;;15.93;2.78;;;11.40;99.90;;;;;;4980420;28;20137;-77
2022/05/29 01:38:11;;;;;;;12.18;2.75;;;11.40;99.90;;;;;;4980390;28;20055;-80
2022/05/29 01:40:41;;;;;;;12.50;3.13;;;11.40;99.90;;;;;;4994027;28;20058;-80
2022/05/29 01:43:26;;;;;;;12.23;2.17;;;11.40;99.90;;;;;;4993885;28;20057;-82
2022/05/29 01:46:03;;;;;;;14.67;3.80;;;11.40;99.90;;;;;;4974448;28;20181;-81
2022/05/29 01:48:40;;;;;;;10.00;2.03;;;11.50;99.90;;;;;;4991802;28;20471;-81
2022/05/29 01:51:16;;;;;;;7.72;2.00;;;11.40;99.90;;;;;;4992055;28;20057;-78
2022/05/29 01:54:12;;;;;;;8.98;2.63;;;11.50;99.90;;;;;;4974595;28;20446;-81
2022/05/29 01:56:46;;;;;;;12.30;2.08;;;11.50;99.90;;;;;;4955680;28;20093;-81
2022/05/29 01:59:37;;;;;;;9.40;2.58;;;11.50;99.90;;;;;;4992340;28;20401;-81
2022/05/29 02:02:09;;;;;;;12.80;2.50;;;11.50;99.90;;;;;;4974387;28;20105;-80
2022/05/29 02:04:40;;;;;;;9.95;2.50;;;11.50;99.90;;;;;;4994023;28;20056;-81
2022/05/29 02:10:08;;;;;;;14.57;2.60;;;11.50;99.90;;;;;;4991093;28;20733;-82
2022/05/29 02:12:40;;;;;;;16.85;3.00;;;11.40;99.90;;;;;;4990123;28;20058;-80
2022/05/29 02:15:10;;;;;;;12.32;3.08;;;11.40;99.90;;;;;;4973935;28;20069;-79
2022/05/29 02:17:46;;;;;;;13.95;4.47;;;11.20;99.90;;;;;;4974853;28;20058;-81
2022/05/29 02:20:23;;;;;;;16.25;3.35;;;11.20;99.90;;;;;;4973616;28;20050;-80
2022/05/29 02:22:56;;;;;;;17.25;3.65;;;11.10;99.90;;;;;;4991851;28;20046;-82
2022/05/29 02:25:25;;;;;;;16.15;3.67;;;11.10;99.90;;;;;;4992085;28;20055;-82
2022/05/29 02:28:14;;;;;;;16.80;4.10;;;11.10;99.90;;;;;;4976712;28;20118;-79
2022/05/29 02:30:48;;;;;;;19.20;3.20;;;11.00;99.90;;;;;;5002247;28;20129;-83
2022/05/29 02:33:24;;;;;;;15.10;2.60;;;11.00;99.90;;;;;;4983489;28;20125;-82
2022/05/29 02:36:20;;;;;;;9.95;2.00;;;11.00;99.90;;;;;;4998118;28;20134;-81
2022/05/29 02:39:16;;;;;;;10.55;2.15;;;11.00;99.90;;;;;;4994909;28;20061;-80
2022/05/29 02:41:51;;;;;;;9.50;1.95;;;10.90;99.90;;;;;;4977439;28;20050;-78
2022/05/29 02:44:31;;;;;;;9.65;2.30;;;11.00;99.90;;;;;;4994914;28;20104;-80
2022/05/29 02:47:14;;;;;;;11.70;2.38;;;10.90;99.90;;;;;;4994664;28;20090;-83
2022/05/29 02:49:51;;;;;;;13.60;2.20;;;10.90;99.90;;;;;;4994512;28;20057;-80
2022/05/29 02:52:19;;;;;;;6.63;1.70;;;10.90;99.90;;;;;;4994349;28;20050;-79
2022/05/29 02:54:45;;;;;;;7.00;1.80;;;10.90;99.90;;;;;;4977667;28;20054;-78
2022/05/29 02:57:11;;;;;;;7.55;2.28;;;10.90;99.90;;;;;;4987114;28;20074;-78
2022/05/29 02:59:44;;;;;;;17.65;2.45;;;11.00;99.90;;;;;;4998111;28;20054;-80
2022/05/29 03:02:32;;;;;;;10.18;2.17;;;10.90;99.90;;;;;;4994529;28;20050;-79
2022/05/29 03:05:16;;;;;;;11.85;3.25;;;11.00;99.90;;;;;;4994488;28;20050;-79
2022/05/29 03:07:54;;;;;;;12.00;2.60;;;11.00;99.90;;;;;;4976507;28;20515;-80
2022/05/29 03:10:34;;;;;;;10.93;2.17;;;11.00;99.90;;;;;;4993746;28;20050;-78
2022/05/29 03:13:22;;;;;;;11.68;2.22;;;11.00;99.90;;;;;;4994901;28;20129;-79
2022/05/29 03:15:51;;;;;;;10.68;3.05;;;11.00;99.90;;;;;;4994858;28;20098;-79
2022/05/29 03:18:19;;;;;;;18.65;2.55;;;10.90;99.90;;;;;;4993863;28;20077;-78
2022/05/29 03:21:07;;;;;;;13.23;3.35;;;10.90;99.90;;;;;;4979580;28;20042;-79
2022/05/29 03:23:51;;;;;;;10.65;2.58;;;10.90;99.90;;;;;;4986434;28;20053;-80
2022/05/29 03:26:51;;;;;;;18.83;3.58;;;10.80;99.90;;;;;;4984348;28;20133;-78
2022/05/29 03:29:25;;;;;;;10.73;2.72;;;10.80;99.90;;;;;;4994152;28;20056;-81
2022/05/29 03:31:52;;;;;;;22.23;3.40;;;10.80;99.90;;;;;;4994606;28;20077;-80
2022/05/29 03:34:21;;;;;;;12.77;2.67;;;10.80;99.90;;;;;;4995944;28;20089;-81
2022/05/29 03:36:50;;;;;;;11.93;2.92;;;10.80;99.90;;;;;;4994230;28;20050;-83
2022/05/29 03:39:17;;;;;;;15.75;3.70;;;10.80;99.90;;;;;;4994238;28;20133;-81
2022/05/29 03:41:48;;;;;;;22.35;3.85;;;10.70;99.90;;;;;;4976805;28;20046;-84
2022/05/29 03:44:17;;;;;;;18.20;4.10;;;10.70;99.90;;;;;;4993895;28;20134;-82
2022/05/29 03:46:44;;;;;;;15.00;2.63;;;10.60;99.90;;;;;;4994269;28;20137;-82
2022/05/29 03:49:11;;;;;;;17.80;3.95;;;10.60;99.90;;;;;;4976878;28;20065;-80
2022/05/29 03:51:38;;;;;;;17.45;2.75;;;10.60;99.90;;;;;;4998321;28;20102;-82
2022/05/29 03:54:05;;;;;;;16.80;2.67;;;10.60;99.90;;;;;;4979022;28;20450;-81
2022/05/29 03:56:32;;;;;;;14.35;3.65;;;10.60;99.90;;;;;;4993720;28;20697;-81
2022/05/29 03:58:58;;;;;;;19.42;3.10;;;10.60;99.90;;;;;;4993655;28;20051;-80
2022/05/29 04:01:24;;;;;;;13.18;2.67;;;10.60;99.90;;;;;;4992442;28;20091;-80
2022/05/29 04:03:53;;;;;;;20.17;4.68;;;10.60;99.90;;;;;;4975757;28;20609;-82
2022/05/29 04:06:20;;;;;;;20.67;3.13;;;10.60;99.90;;;;;;4992876;28;20527;-80
2022/05/29 04:14:14;;;;;;;14.95;2.95;;;10.60;99.90;;;;;;4994847;28;20297;-79
2022/05/29 04:16:40;;;;;;;9.93;2.47;;;10.60;99.90;;;;;;5001045;28;20180;-79
2022/05/29 04:19:06;;;;;;;16.58;2.30;;;10.70;99.90;;;;;;4982320;28;20042;-80
2022/05/29 04:21:32;;;;;;;18.13;3.78;;;10.70;99.90;;;;;;4993613;28;20050;-82
2022/05/29 04:23:58;;;;;;;13.85;2.47;;;10.80;99.90;;;;;;4995381;28;20053;-79
2022/05/29 04:26:24;;;;;;;18.63;2.47;;;10.80;99.90;;;;;;4994135;28;20046;-79
2022/05/29 04:28:50;;;;;;;16.35;3.30;;;10.80;99.90;;;;;;4994961;28;20065;-81
2022/05/29 04:31:16;;;;;;;15.13;2.60;;;10.90;99.90;;;;;;4975940;28;20116;-79
2022/05/29 04:33:42;;;;;;;19.17;2.55;;;10.90;99.90;;;;;;4992076;28;20426;-79
2022/05/29 04:36:08;;;;;;;21.13;4.55;;;11.00;99.90;;;;;;4993132;28;20546;-78
2022/05/29 04:38:34;;;;;;;15.88;2.47;;;11.00;99.90;;;;;;4993513;28;20115;-80
2022/05/29 04:41:08;;;;;;;14.25;2.40;;;11.10;99.90;;;;;;4976160;28;20085;-79
2022/05/29 04:43:34;;;;;;;15.55;2.58;;;11.10;99.90;;;;;;4997076;28;20076;-79
2022/05/29 04:46:00;;;;;;;16.67;2.47;;;11.10;99.90;;;;;;4979758;28;20137;-79
2022/05/29 04:48:26;;;;;;;16.75;3.30;;;11.00;99.90;;;;;;4992813;28;20387;-80
2022/05/29 04:51:00;;;;;;;12.57;2.35;;;11.00;99.90;;;;;;4975223;28;20446;-79
2022/05/29 04:53:28;;;;;;;21.33;3.60;;;11.00;99.90;;;;;;4993704;28;20050;-79
2022/05/29 04:55:55;;;;;;;17.13;3.03;;;11.00;99.90;;;;;;4992072;28;20050;-79
2022/05/29 04:58:23;;;;;;;13.35;2.20;;;11.00;99.90;;;;;;4992065;28;20050;-82
2022/05/29 05:00:49;;;;;;;23.38;3.97;;;10.90;99.90;;;;;;4992636;28;20061;-81
2022/05/29 05:03:15;;;;;;;18.63;2.90;;;10.80;99.90;;;;;;4996655;28;20046;-81
2022/05/29 05:05:42;;;;;;;17.90;3.35;;;10.70;99.90;;;;;;4976881;28;20062;-84
2022/05/29 05:08:08;;;;;;;11.30;2.78;;;10.70;99.90;;;;;;4975184;28;20054;-80
2022/05/29 05:10:33;;;;;;;14.27;3.00;;;10.70;99.90;;;;;;4994477;28;20077;-79
2022/05/29 05:12:59;;;;;;;12.10;3.20;;;10.70;99.90;;;;;;4992083;28;20042;-81
2022/05/29 05:15:25;;;;;;;24.48;4.28;;;10.70;99.90;;;;;;4974357;28;20089;-80
2022/05/29 05:17:51;;;;;;;18.83;4.40;;;10.70;99.90;;;;;;4991905;28;20058;-81
2022/05/29 05:20:17;;;;;;;21.92;3.70;;;10.70;99.90;;;;;;4992352;28;20058;-81
2022/05/29 05:22:43;;;;;;;24.50;3.65;;;10.80;99.90;;;;;;4993584;28;20065;-81
2022/05/29 05:25:10;;;;;;;15.82;3.13;;;10.80;99.90;;;;;;4977958;28;20054;-81
2022/05/29 05:27:36;;;;;;;17.52;3.67;;;10.90;99.90;;;;;;4976732;28;20046;-80
2022/05/29 05:30:02;;;;;;;19.25;3.22;;;10.90;99.90;;;;;;4995905;28;20050;-82
2022/05/29 05:32:28;;;;;;;15.70;3.45;;;10.90;99.90;;;;;;4992957;28;20133;-81
2022/05/29 05:34:54;;;;;;;18.30;3.15;;;10.90;99.90;;;;;;4991682;28;20174;-80
2022/05/29 05:37:20;;;;;;;26.40;3.88;;;11.00;99.90;;;;;;4991663;28;20498;-81
2022/05/29 05:39:46;;;;;;;20.92;3.55;;;11.00;99.90;;;;;;4973795;28;20056;-79
2022/05/29 05:42:12;;;;;;;21.52;4.28;;;11.00;99.90;;;;;;4991179;28;20046;-80
2022/05/29 05:44:38;;;;;;;18.52;3.50;;;11.00;99.90;;;;;;4992797;28;20081;-80
2022/05/29 05:47:04;;;;;;;18.05;3.13;;;11.00;99.90;;;;;;4996852;28;20054;-80
2022/05/29 05:49:30;;;;;;;17.33;3.22;;;11.00;99.90;;;;;;4992945;28;20106;-80
2022/05/29 05:51:59;;;;;;;15.38;3.15;;;11.10;99.90;;;;;;4991943;28;20137;-81
2022/05/29 05:54:28;;;;;;;14.18;3.40;;;11.10;99.90;;;;;;4991931;28;20150;-80
2022/05/29 05:56:54;;;;;;;12.80;2.85;;;11.20;99.90;;;;;;4991761;28;20069;-79
2022/05/29 05:59:19;;;;;;;12.48;3.00;;;11.20;99.90;;;;;;4990688;28;20046;-80
2022/05/29 06:01:45;;;;;;;14.52;2.25;;;11.20;99.90;;;;;;4991930;28;20050;-80
2022/05/29 06:04:12;;;;;;;18.63;3.20;;;11.20;99.90;;;;;;4992307;28;20402;-80
2022/05/29 06:06:38;;;;;;;18.92;4.80;;;11.20;99.90;;;;;;4993434;28;20165;-81
2022/05/29 06:09:03;;;;;;;10.80;2.20;;;11.20;99.90;;;;;;4979324;28;20062;-81
2022/05/29 06:11:30;;;;;;;11.80;2.42;;;11.20;99.90;;;;;;5004049;28;20050;-81
2022/05/29 06:13:56;;;;;;;18.63;2.95;;;11.20;99.90;;;;;;4998981;28;20064;-80
2022/05/29 06:16:23;;;;;;;14.18;2.20;;;11.20;99.90;;;;;;4996604;28;20050;-82
2022/05/29 06:18:49;;;;;;;14.45;2.60;;;11.20;99.90;;;;;;4979074;28;20054;-82
2022/05/29 06:21:14;;;;;;;9.98;2.35;;;11.20;99.90;;;;;;4995654;28;20057;-80
2022/05/29 06:23:41;;;;;;;8.02;2.47;;;11.30;99.90;;;;;;4978260;28;20474;-80
2022/05/29 06:26:10;;;;;;;12.10;3.60;;;11.30;99.90;;;;;;4977970;28;20054;-80
2022/05/29 06:28:36;;;;;;;9.00;2.35;;;11.30;99.90;;;;;;4995129;28;20054;-81
2022/05/29 06:31:07;;;;;;;13.73;2.85;;;11.30;99.90;;;;;;4995389;28;20042;-82
2022/05/29 06:33:33;;;;;;;12.18;2.22;;;11.20;99.90;;;;;;4995937;28;20069;-80
2022/05/29 06:36:16;;;;;;;15.45;2.40;;;11.20;99.90;;;;;;4977929;28;20080;-79
2022/05/29 06:38:45;;;;;;;18.92;2.65;;;11.10;99.90;;;;;;4983493;28;20461;-80
2022/05/29 06:41:13;;;;;;;14.10;2.40;;;11.10;99.90;;;;;;4995080;28;20058;-81
2022/05/29 06:43:39;;;;;;;14.40;3.15;;;11.10;99.90;;;;;;4977947;28;20407;-81
2022/05/29 06:46:07;;;;;;;11.32;2.15;;;11.10;99.90;;;;;;4995131;28;20061;-77
2022/05/29 06:48:35;;;;;;;14.07;2.63;;;11.10;99.90;;;;;;4995461;28;20139;-76
2022/05/29 06:51:10;;;;;;;13.85;1.95;;;11.10;99.90;;;;;;4995105;28;20054;-80
2022/05/29 06:53:37;;;;;;;13.23;2.65;;;11.20;99.90;;;;;;4977451;28;20080;-78
2022/05/29 06:56:04;;;;;;;20.65;2.90;;;11.20;99.90;;;;;;4976987;28;20085;-77
2022/05/29 06:58:30;;;;;;;11.80;1.50;;;11.30;99.90;;;;;;4960494;28;20057;-76
2022/05/29 07:09:09;;;;;;;17.58;2.22;;;11.30;99.90;;;;;;4994883;28;20061;-78
2022/05/29 07:11:40;;;;;;;10.13;1.65;;;11.30;99.90;;;;;;4976358;28;20167;-79
2022/05/29 07:14:06;;;;;;;10.80;1.70;;;11.20;99.90;;;;;;4961427;28;20102;-79
2022/05/29 07:16:33;;;;;;;11.70;2.70;;;11.20;99.90;;;;;;4977182;28;20065;-81
2022/05/29 07:18:59;;;;;;;10.80;1.83;;;11.20;99.90;;;;;;4994559;28;20047;-79
2022/05/29 07:21:28;;;;;;;10.77;1.50;;;11.20;99.90;;;;;;4994424;28;20057;-75
2022/05/29 07:23:54;;;;;;;21.60;2.75;;;11.20;99.90;;;;;;4994034;28;20058;-77
2022/05/29 07:26:20;;;;;;;14.80;3.00;;;11.10;99.90;;;;;;4995813;28;20058;-78
2022/05/29 07:28:46;;;;;;;12.55;3.00;;;11.10;99.90;;;;;;4983254;28;20112;-74
2022/05/29 07:31:12;;;;;;;13.05;1.83;;;11.10;99.90;;;;;;4974411;28;20110;-75
2022/05/29 07:33:38;;;;;;;9.25;1.40;;;11.10;99.90;;;;;;4979415;28;20467;-75
2022/05/29 07:36:11;;;;;;;12.68;2.15;;;11.00;99.90;;;;;;4997950;28;20050;-75
2022/05/29 07:38:38;;;;;;;12.20;2.47;;;11.10;99.90;;;;;;4990878;28;20046;-77
2022/05/29 07:43:18;;;;;;;11.50;1.98;;;11.00;99.90;;;;;;4992806;28;20089;-76
2022/05/29 07:43:55;;;;;;;11.27;1.98;;;10.90;99.90;;;;;;4975697;28;20494;-78
2022/05/29 07:46:21;;;;;;;19.13;2.25;;;10.90;99.90;;;;;;4993384;28;20117;-76
2022/05/29 07:48:48;;;;;;;11.65;1.92;;;10.90;99.90;;;;;;4976729;28;20050;-75
2022/05/29 07:51:14;;;;;;;13.23;2.00;;;10.90;99.90;;;;;;4975036;28;20046;-75
2022/05/29 07:53:40;;;;;;;11.18;1.83;;;11.00;99.90;;;;;;4975676;28;20134;-75
2022/05/29 07:56:07;;;;;;;9.45;1.55;;;11.10;99.90;;;;;;4991894;28;20069;-77
2022/05/29 07:58:34;;;;;;;13.05;1.77;;;11.30;99.90;;;;;;4992535;28;20444;-78
2022/05/29 08:01:01;;;;;;;9.15;1.42;;;11.40;99.90;;;;;;4974398;28;20085;-74
2022/05/29 08:03:28;;;;;;;10.20;2.05;;;11.30;99.90;;;;;;4992611;28;20149;-77
2022/05/29 08:05:56;;;;;;;11.23;1.60;;;11.30;99.90;;;;;;4972073;28;20043;-76
2022/05/29 08:08:22;;;;;;;10.88;1.67;;;11.40;99.90;;;;;;4986721;28;20082;-78
2022/05/29 08:10:49;;;;;;;17.17;2.10;;;11.40;99.90;;;;;;4954707;28;20101;-76
2022/05/29 08:13:15;;;;;;;8.82;1.50;;;11.40;99.90;;;;;;4948748;28;20054;-76
2022/05/29 08:15:42;;;;;;;9.40;1.90;;;11.50;99.90;;;;;;4991648;28;20145;-79
2022/05/29 08:18:09;;;;;;;13.70;2.15;;;11.40;99.90;;;;;;4974793;28;20130;-83
2022/05/29 08:20:37;;;;;;;8.30;2.30;;;11.40;99.90;;;;;;4971272;28;20051;-82
2022/05/29 08:23:07;;;;;;;14.52;2.20;;;11.40;99.90;;;;;;4975999;28;20133;-82
2022/05/29 08:31:04;;;;;;;16.10;2.03;;;11.60;99.90;;;;;;4991974;28;20140;-81
2022/05/29 08:33:33;;;;;;;16.00;2.75;;;11.70;99.90;;;;;;4992117;28;20043;-78
2022/05/29 08:36:14;;;;;;;14.82;2.30;;;11.70;99.90;;;;;;4991792;28;20405;-79
2022/05/29 08:38:43;;;;;;;13.80;1.92;;;11.70;99.90;;;;;;4958167;28;20092;-81
2022/05/29 08:41:20;;;;;;;11.73;2.17;;;11.70;99.90;;;;;;4991542;28;20341;-81
2022/05/29 08:44:09;;;;;;;9.65;2.08;;;11.60;99.90;;;;;;4952519;28;20052;-82
2022/05/29 08:46:38;;;;;;;14.73;2.97;;;11.50;99.90;;;;;;4961928;28;20793;-81
2022/05/29 08:49:04;;;;;;;13.60;2.00;;;11.60;99.90;;;;;;4991328;28;20057;-82
2022/05/29 08:51:52;;;;;;;14.13;3.17;;;11.50;99.90;;;;;;4990898;28;20046;-80
2022/05/29 08:54:34;;;;;;;10.35;1.85;;;11.50;99.90;;;;;;4991067;28;20486;-78
2022/05/29 08:57:19;;;;;;;14.40;2.25;;;11.60;99.90;;;;;;4990173;28;20050;-79
2022/05/29 09:00:06;;;;;;;12.23;1.95;;;11.60;99.90;;;;;;4973500;28;20050;-78
2022/05/29 09:02:49;;;;;;;8.18;1.48;;;11.60;99.90;;;;;;4971093;28;20046;-78
2022/05/29 09:05:34;;;;;;;14.95;2.75;;;11.70;99.90;;;;;;4990234;28;20076;-79
2022/05/29 09:08:09;;;;;;;10.50;1.85;;;11.70;99.90;;;;;;4988256;28;20039;-77
2022/05/29 09:10:50;;;;;;;14.10;2.08;;;11.80;99.90;;;;;;4990138;28;20345;-78
2022/05/29 09:13:30;;;;;;;17.00;3.60;;;12.00;99.90;;;;;;4991208;28;20147;-76
2022/05/29 09:16:06;;;;;;;12.13;1.67;;;12.10;99.90;;;;;;4944050;28;20085;-80
2022/05/29 09:18:37;;;;;;;8.35;2.33;;;12.20;99.90;;;;;;4973418;28;20133;-78
2022/05/29 09:21:08;;;;;;;12.50;2.65;;;12.30;99.90;;;;;;4983234;28;20065;-79
2022/05/29 09:23:57;;;;;;;9.43;2.47;;;12.40;99.90;;;;;;4992063;28;20104;-80
2022/05/29 09:26:40;;;;;;;6.82;1.60;;;12.30;99.90;;;;;;4964843;28;20474;-76
2022/05/29 09:29:07;;;;;;;8.93;2.28;;;12.30;99.90;;;;;;4975160;28;20054;-77
2022/05/29 09:31:33;;;;;;;9.35;2.00;;;12.30;99.90;;;;;;4993889;28;20074;-79
2022/05/29 09:33:59;;;;;;;7.72;1.73;;;12.40;99.90;;;;;;4976885;28;20069;-80
2022/05/29 09:36:44;;;;;;;13.55;1.77;;;12.30;99.90;;;;;;4991311;28;20486;-79
2022/05/29 09:39:37;;;;;;;9.07;1.58;;;12.30;99.90;;;;;;4991590;28;20046;-82
2022/05/29 09:42:33;;;;;;;8.70;1.92;;;12.30;99.90;;;;;;4973379;28;20673;-80
2022/05/29 09:45:11;;;;;;;;;;;12.10;99.90;;;;;;4980326;28;20089;-79
2022/05/29 09:50:24;;;;;;;;;;;12.30;99.90;;;;;;4982387;28;20051;-76
2022/05/29 09:52:51;;;;;;;10.48;1.90;;;12.40;99.90;;;;;;4981002;28;19968;-78
2022/05/29 09:55:28;;;;;;;11.18;1.55;;;12.50;99.90;;;;;;4982734;28;20057;-77
2022/05/29 09:58:16;;;;;;;11.13;1.58;;;12.60;99.90;;;;;;4977630;28;20516;-75
2022/05/29 10:01:03;;;;;;;15.18;2.13;;;12.80;99.90;;;;;;4986033;28;20061;-80
2022/05/29 10:03:52;;;;;;;11.10;1.90;;;13.00;99.90;;;;;;4980162;28;20138;-77
2022/05/29 10:06:35;;;;;;;8.27;1.73;;;13.20;99.90;;;;;;4965114;28;20073;-75
2022/05/29 10:09:20;;;;;;;8.77;2.20;;;13.20;99.90;;;;;;4996556;28;20058;-78
2022/05/29 10:11:47;;;;;;;;;;;13.10;99.90;;;;;;4961974;28;20426;-76
2022/05/29 10:14:22;;;;;;;7.38;1.38;;;12.90;99.90;;;;;;4978297;28;20072;-77
2022/05/29 10:16:49;;;;;;;9.82;1.80;;;12.80;99.90;;;;;;4965018;28;20063;-77
2022/05/29 10:19:35;;;;;;;10.60;2.63;;;12.70;99.90;;;;;;4978218;28;20074;-81
2022/05/29 10:22:10;;;;;;;17.08;1.63;;;12.60;99.90;;;;;;4961483;28;20047;-81
2022/05/29 10:24:37;;;;;;;;;;;12.70;99.90;;;;;;4964782;28;20054;-78
2022/05/29 10:27:25;;;;;;;10.05;2.42;;;13.00;99.90;;;;;;4969794;28;19945;-79
2022/05/29 10:30:00;;;;;;;7.03;2.10;;;13.10;99.90;;;;;;4981075;28;20062;-83
2022/05/29 10:32:32;;;;;;;9.70;2.42;;;13.40;99.90;;;;;;4945154;28;20121;-87
2022/05/29 10:35:28;;;;;;;12.32;1.85;;;13.60;99.90;;;;;;4964528;28;20193;-79
2022/05/29 10:37:55;;;;;;;8.02;1.52;;;13.80;99.90;;;;;;4959330;28;20074;-77
2022/05/29 10:40:31;;;;;;;15.60;2.65;;;13.90;99.90;;;;;;4961646;28;20383;-84
2022/05/29 10:43:03;;;;;;;9.07;2.75;;;13.90;99.90;;;;;;4978920;28;20121;-79
2022/05/29 10:45:34;;;;;;;10.50;1.95;;;13.90;99.90;;;;;;4978556;28;20446;-82
2022/05/29 10:48:27;;;;;;;10.07;1.80;;;14.10;99.90;;;;;;4978255;28;20139;-81
2022/05/29 10:51:26;;;;;;;11.07;1.88;;;14.10;99.90;;;;;;4953406;28;20047;-77
2022/05/29 10:54:15;;;;;;;12.15;2.53;;;14.30;99.90;;;;;;4964980;28;20055;-82
2022/05/29 10:56:53;;;;;;;8.73;2.35;;;14.20;99.90;;;;;;4986040;28;20115;-79
2022/05/29 10:59:25;;;;;;;12.40;1.75;;;14.30;99.90;;;;;;4983409;28;20051;-82
2022/05/29 11:05:06;;;;;;;8.30;1.73;;;14.20;99.90;;;;;;4941936;28;20051;-80
2022/05/29 11:07:52;;;;;;;16.88;3.05;;;14.30;99.90;;;;;;4941809;28;20058;-83
2022/05/29 11:10:34;;;;;;;15.52;2.20;;;14.20;99.90;;;;;;4969909;28;20055;-77
2022/05/29 11:13:00;;;;;;;9.80;1.63;;;14.10;99.90;;;;;;4960659;28;20068;-79
2022/05/29 11:15:34;;;;;;;6.82;1.27;;;14.00;99.90;;;;;;4976788;28;20545;-79
2022/05/29 11:18:37;;;;;;;10.43;1.90;;;14.00;99.90;;;;;;4984682;28;20043;-84
2022/05/29 11:21:33;;;;;;;12.80;2.05;;;13.90;99.90;;;;;;4974974;28;20093;-82
2022/05/29 11:24:27;;;;;;;10.93;1.65;;;13.90;99.90;;;;;;4968099;28;20430;-82
2022/05/29 11:27:24;;;;;;;10.18;2.13;;;13.90;99.90;;;;;;4997264;28;20065;-81
2022/05/29 11:30:17;;;;;;;9.82;1.60;;;13.90;99.90;;;;;;4949921;28;20097;-82
2022/05/29 11:33:00;;;;;;;6.10;1.13;;;13.80;99.90;;;;;;4976073;28;20825;-83
2022/05/29 11:35:28;;;;;;;9.07;1.30;;;14.00;99.90;;;;;;4976152;28;20105;-79
2022/05/29 11:38:10;;;;;;;8.18;2.10;;;13.90;99.90;;;;;;4995108;28;20054;-80
2022/05/29 11:40:43;;;;;;;7.70;1.30;;;14.00;99.90;;;;;;4974997;28;20057;-78
2022/05/29 11:43:28;;;;;;;9.05;1.60;;;14.10;99.90;;;;;;4991275;28;20438;-78
2022/05/29 11:51:54;;;;;;;7.65;1.23;;;14.60;99.90;;;;;;4993719;28;20370;-82
2022/05/29 11:54:37;;;;;;;10.93;1.65;;;14.50;99.90;;;;;;4975940;28;20387;-82
2022/05/29 11:57:12;;;;;;;8.63;1.42;;;14.50;99.00;;;;;;4975840;28;20058;-81
2022/05/29 11:59:57;;;;;;;12.98;2.20;;;14.60;99.60;;;;;;4980464;28;20065;-77
2022/05/29 12:02:37;;;;;;;9.80;1.65;;;14.50;99.90;;;;;;4975363;28;20181;-81
2022/05/29 12:05:16;;;;;;;10.05;1.85;;;14.70;99.80;;;;;;4991566;28;20061;-76
2022/05/29 12:08:02;;;;;;;7.68;1.80;;;14.80;99.70;;;;;;4974987;28;20069;-77
2022/05/29 12:10:35;;;;;;;8.95;1.52;;;14.90;99.90;;;;;;4978808;28;20518;-78
2022/05/29 12:13:08;;;;;;;8.00;1.42;;;15.00;99.90;;;;;;4955880;28;20054;-77
2022/05/29 12:15:35;;;;;;;8.07;1.45;;;15.00;99.40;;;;;;4955962;28;20668;-77
2022/05/29 12:18:06;;;;;;;10.15;1.38;;;15.00;99.70;;;;;;4955774;28;20054;-77
2022/05/29 12:20:49;;;;;;;8.38;1.70;;;14.90;98.20;;;;;;4939683;28;20051;-79
2022/05/29 12:23:27;;;;;;;11.90;1.83;;;15.00;98.60;;;;;;4956106;28;20086;-78
2022/05/29 12:26:00;;;;;;;11.40;1.83;;;15.10;98.40;;;;;;4977680;28;20051;-81
2022/05/29 12:28:50;;;;;;;13.02;1.63;;;15.40;98.80;;;;;;4964812;28;20063;-79
2022/05/29 12:31:37;;;;;;;14.93;2.42;;;15.30;98.00;;;;;;4974083;28;20061;-79
2022/05/29 12:34:04;;;;;;;11.15;1.98;;;15.20;98.80;;;;;;4973094;28;20055;-80
2022/05/29 12:36:55;;;;;;;9.93;1.75;;;15.00;99.50;;;;;;4956001;28;20105;-82
2022/05/29 12:39:36;;;;;;;12.93;2.40;;;14.80;99.40;;;;;;4969891;28;20057;-81
2022/05/29 12:42:11;;;;;;;8.90;2.00;;;14.60;99.60;;;;;;4970069;28;20402;-81
2022/05/29 12:44:36;;;;;;;;;;;14.30;99.90;;;;;;4972741;28;20190;-79
2022/05/29 12:47:05;;;;;;;10.90;2.47;;;14.00;99.90;;;;;;4973118;28;20028;-85
2022/05/29 12:50:09;;;;;;;8.52;1.88;;;13.90;99.90;;;;;;4960914;28;20047;-81
2022/05/29 12:53:13;;;;;;;8.30;1.30;;;13.80;99.90;;;;;;4954690;28;20081;-81
2022/05/29 12:56:28;;;;;;;6.35;1.05;;;13.80;99.90;;;;;;4955256;28;20463;-87
2022/05/29 12:59:14;;;;;;;8.05;2.45;;;13.70;99.90;;;;;;4954125;28;20197;-83
2022/05/29 13:01:50;;;;;;;7.75;1.35;;;13.60;99.90;;;;;;4969869;28;20043;-79
2022/05/29 13:04:33;;;;;;;12.00;1.80;;;13.60;99.90;;;;;;4971401;28;20043;-76
2022/05/29 13:07:21;;;;;;;14.25;2.22;;;13.80;99.90;;;;;;4970752;28;20051;-78
2022/05/29 13:10:00;;;;;;;9.95;1.50;;;13.80;99.90;;;;;;4959601;28;20093;-76
2022/05/29 13:12:47;;;;;;;10.43;1.77;;;14.10;99.90;;;;;;4974333;28;20054;-77
2022/05/29 13:15:27;;;;;;;8.75;2.03;;;14.40;99.90;;;;;;4991049;28;20054;-78
2022/05/29 13:21:06;;;;;;;8.82;1.95;;;14.60;99.40;;;;;;4991189;28;20561;-81
2022/05/29 13:23:35;;;;;;;9.80;1.83;;;14.70;99.60;;;;;;4995332;28;20457;-78
2022/05/29 13:26:02;;;;;;;9.68;2.22;;;14.80;99.90;;;;;;5000164;28;20050;-88
2022/05/29 13:28:53;;;;;;;12.15;2.55;;;14.80;99.80;;;;;;4992765;28;20093;-82
2022/05/29 13:31:20;;;;;;;10.57;2.33;;;14.90;99.90;;;;;;4994465;28;20105;-80
2022/05/29 13:34:15;;;;;;;12.75;2.30;;;14.90;99.80;;;;;;4991211;28;20449;-78
2022/05/29 13:36:43;;;;;;;11.68;1.85;;;15.00;99.80;;;;;;4974354;28;20509;-83
2022/05/29 13:39:24;;;;;;;15.43;2.90;;;15.00;99.90;;;;;;4991579;28;20050;-80
2022/05/29 13:42:01;;;;;;;10.75;1.83;;;15.00;99.30;;;;;;4973904;28;20085;-82
2022/05/29 13:44:34;;;;;;;14.70;2.30;;;14.90;99.80;;;;;;4991220;28;20108;-80
2022/05/29 13:47:18;;;;;;;15.52;2.83;;;14.90;99.90;;;;;;4996911;28;20053;-79
2022/05/29 13:50:01;;;;;;;17.20;2.33;;;14.90;99.90;;;;;;4975289;28;20105;-76
2022/05/29 13:52:39;;;;;;;12.63;2.10;;;15.00;99.80;;;;;;4991678;28;20058;-80